sensor_id;sensor_type;location;lat;lon;timestamp;temperature;humidity
68943;DHT22;60852;52.190;4.422;2022-08-27T00:00:20;18.65;68.20
68943;DHT22;60852;52.190;4.422;2022-08-27T00:02:49;18.64;68.05
68943;DHT22;60852;52.190;4.422;2022-08-27T00:05:17;18.67;68.11
68943;DHT22;60852;52.190;4.422;2022-08-27T00:07:46;18.62;68.20
68943;DHT22;60852;52.190;4.422;2022-08-27T00:10:17;18.62;68.22
68943;DHT22;60852;52.190;4.422;2022-08-27T00:12:42;18.60;68.76
68943;DHT22;60852;52.190;4.422;2022-08-27T00:15:11;18.57;68.47
68943;DHT22;60852;52.190;4.422;2022-08-27T00:17:37;18.52;68.42
68943;DHT22;60852;52.190;4.422;2022-08-27T00:20:05;18.48;68.76
68943;DHT22;60852;52.190;4.422;2022-08-27T00:22:31;18.48;69.01
68943;DHT22;60852;52.190;4.422;2022-08-27T00:24:56;18.47;68.90
68943;DHT22;60852;52.190;4.422;2022-08-27T00:27:22;18.43;68.83
68943;DHT22;60852;52.190;4.422;2022-08-27T00:29:48;18.40;68.79
68943;DHT22;60852;52.190;4.422;2022-08-27T00:32:14;18.36;69.13
68943;DHT22;60852;52.190;4.422;2022-08-27T00:34:40;18.37;69.38
68943;DHT22;60852;52.190;4.422;2022-08-27T00:37:05;18.31;69.64
68943;DHT22;60852;52.190;4.422;2022-08-27T00:39:32;18.31;69.47
68943;DHT22;60852;52.190;4.422;2022-08-27T00:41:58;18.31;69.18
68943;DHT22;60852;52.190;4.422;2022-08-27T00:44:26;18.24;69.33
68943;DHT22;60852;52.190;4.422;2022-08-27T00:46:57;18.27;69.45
68943;DHT22;60852;52.190;4.422;2022-08-27T00:49:33;18.30;69.34
68943;DHT22;60852;52.190;4.422;2022-08-27T00:52:18;18.26;69.69
68943;DHT22;60852;52.190;4.422;2022-08-27T00:54:45;18.29;69.53
68943;DHT22;60852;52.190;4.422;2022-08-27T00:57:14;18.34;69.24
68943;DHT22;60852;52.190;4.422;2022-08-27T00:59:42;18.44;68.86
68943;DHT22;60852;52.190;4.422;2022-08-27T01:02:07;18.40;68.89
68943;DHT22;60852;52.190;4.422;2022-08-27T01:04:52;18.33;69.17
68943;DHT22;60852;52.190;4.422;2022-08-27T01:07:20;18.33;69.12
68943;DHT22;60852;52.190;4.422;2022-08-27T01:09:47;18.33;69.24
68943;DHT22;60852;52.190;4.422;2022-08-27T01:12:14;18.36;69.03
68943;DHT22;60852;52.190;4.422;2022-08-27T01:14:43;18.38;69.06
68943;DHT22;60852;52.190;4.422;2022-08-27T01:17:11;18.43;68.79
68943;DHT22;60852;52.190;4.422;2022-08-27T01:24:50;18.34;69.41
68943;DHT22;60852;52.190;4.422;2022-08-27T01:27:21;18.37;69.29
68943;DHT22;60852;52.190;4.422;2022-08-27T01:29:47;18.40;69.05
68943;DHT22;60852;52.190;4.422;2022-08-27T01:32:20;18.38;69.02
68943;DHT22;60852;52.190;4.422;2022-08-27T01:34:46;18.37;69.31
68943;DHT22;60852;52.190;4.422;2022-08-27T01:37:14;18.31;69.55
68943;DHT22;60852;52.190;4.422;2022-08-27T01:39:41;18.36;69.43
68943;DHT22;60852;52.190;4.422;2022-08-27T01:42:14;18.31;69.70
68943;DHT22;60852;52.190;4.422;2022-08-27T01:44:51;18.24;69.93
68943;DHT22;60852;52.190;4.422;2022-08-27T01:47:21;18.21;69.93
68943;DHT22;60852;52.190;4.422;2022-08-27T01:49:48;18.23;69.88
68943;DHT22;60852;52.190;4.422;2022-08-27T01:52:15;18.16;70.03
68943;DHT22;60852;52.190;4.422;2022-08-27T01:54:41;18.13;69.87
68943;DHT22;60852;52.190;4.422;2022-08-27T01:57:07;18.11;69.90
68943;DHT22;60852;52.190;4.422;2022-08-27T01:59:32;18.06;70.05
68943;DHT22;60852;52.190;4.422;2022-08-27T02:01:58;18.10;70.03
68943;DHT22;60852;52.190;4.422;2022-08-27T02:04:24;18.09;69.93
68943;DHT22;60852;52.190;4.422;2022-08-27T02:06:49;18.11;69.92
68943;DHT22;60852;52.190;4.422;2022-08-27T02:09:15;18.10;69.73
68943;DHT22;60852;52.190;4.422;2022-08-27T02:11:40;18.00;70.11
68943;DHT22;60852;52.190;4.422;2022-08-27T02:14:05;18.07;70.08
68943;DHT22;60852;52.190;4.422;2022-08-27T02:16:31;18.07;70.42
68943;DHT22;60852;52.190;4.422;2022-08-27T02:18:59;18.07;70.35
68943;DHT22;60852;52.190;4.422;2022-08-27T02:21:25;18.03;70.41
68943;DHT22;60852;52.190;4.422;2022-08-27T02:23:51;18.00;70.46
68943;DHT22;60852;52.190;4.422;2022-08-27T02:26:16;17.99;70.38
68943;DHT22;60852;52.190;4.422;2022-08-27T02:28:41;17.94;70.41
68943;DHT22;60852;52.190;4.422;2022-08-27T02:31:08;17.93;70.19
68943;DHT22;60852;52.190;4.422;2022-08-27T02:33:34;17.97;70.20
68943;DHT22;60852;52.190;4.422;2022-08-27T02:35:59;17.94;70.05
68943;DHT22;60852;52.190;4.422;2022-08-27T02:38:24;17.87;70.35
68943;DHT22;60852;52.190;4.422;2022-08-27T02:40:50;17.90;70.43
68943;DHT22;60852;52.190;4.422;2022-08-27T02:43:15;17.85;70.71
68943;DHT22;60852;52.190;4.422;2022-08-27T02:45:41;17.86;70.70
68943;DHT22;60852;52.190;4.422;2022-08-27T02:48:07;17.85;70.61
68943;DHT22;60852;52.190;4.422;2022-08-27T02:50:33;17.82;70.62
68943;DHT22;60852;52.190;4.422;2022-08-27T02:53:04;17.82;70.62
68943;DHT22;60852;52.190;4.422;2022-08-27T02:55:31;17.83;70.89
68943;DHT22;60852;52.190;4.422;2022-08-27T02:57:57;17.87;70.65
68943;DHT22;60852;52.190;4.422;2022-08-27T03:00:24;17.83;71.00
68943;DHT22;60852;52.190;4.422;2022-08-27T03:02:50;17.85;70.91
68943;DHT22;60852;52.190;4.422;2022-08-27T03:05:17;17.79;70.81
68943;DHT22;60852;52.190;4.422;2022-08-27T03:07:43;17.75;71.06
68943;DHT22;60852;52.190;4.422;2022-08-27T03:10:11;17.71;70.87
68943;DHT22;60852;52.190;4.422;2022-08-27T03:12:38;17.71;71.12
68943;DHT22;60852;52.190;4.422;2022-08-27T03:15:10;17.71;71.27
68943;DHT22;60852;52.190;4.422;2022-08-27T03:17:36;17.69;71.47
68943;DHT22;60852;52.190;4.422;2022-08-27T03:20:21;17.73;71.27
68943;DHT22;60852;52.190;4.422;2022-08-27T03:22:50;17.76;70.87
68943;DHT22;60852;52.190;4.422;2022-08-27T03:25:16;17.79;70.81
68943;DHT22;60852;52.190;4.422;2022-08-27T03:27:42;17.82;71.02
68943;DHT22;60852;52.190;4.422;2022-08-27T03:30:12;17.85;71.06
68943;DHT22;60852;52.190;4.422;2022-08-27T03:32:40;17.87;71.08
68943;DHT22;60852;52.190;4.422;2022-08-27T03:35:06;17.87;71.26
68943;DHT22;60852;52.190;4.422;2022-08-27T03:37:31;17.96;70.89
68943;DHT22;60852;52.190;4.422;2022-08-27T03:39:57;18.04;70.95
68943;DHT22;60852;52.190;4.422;2022-08-27T03:42:22;18.07;70.73
68943;DHT22;60852;52.190;4.422;2022-08-27T03:44:48;18.07;70.90
68943;DHT22;60852;52.190;4.422;2022-08-27T03:47:14;18.03;70.75
68943;DHT22;60852;52.190;4.422;2022-08-27T03:49:39;18.00;70.95
68943;DHT22;60852;52.190;4.422;2022-08-27T03:52:05;18.01;71.23
68943;DHT22;60852;52.190;4.422;2022-08-27T03:54:33;18.03;71.36
68943;DHT22;60852;52.190;4.422;2022-08-27T03:57:00;18.00;71.32
68943;DHT22;60852;52.190;4.422;2022-08-27T03:59:25;18.03;71.25
68943;DHT22;60852;52.190;4.422;2022-08-27T04:01:51;18.07;71.08
68943;DHT22;60852;52.190;4.422;2022-08-27T04:04:16;18.01;71.29
68943;DHT22;60852;52.190;4.422;2022-08-27T04:06:42;17.99;71.20
68943;DHT22;60852;52.190;4.422;2022-08-27T04:09:07;17.96;71.21
68943;DHT22;60852;52.190;4.422;2022-08-27T04:11:33;17.97;71.64
68943;DHT22;60852;52.190;4.422;2022-08-27T04:13:59;17.94;71.70
68943;DHT22;60852;52.190;4.422;2022-08-27T04:16:26;17.97;71.54
68943;DHT22;60852;52.190;4.422;2022-08-27T04:18:53;18.03;71.55
68943;DHT22;60852;52.190;4.422;2022-08-27T04:21:19;18.09;71.47
68943;DHT22;60852;52.190;4.422;2022-08-27T04:23:46;18.11;71.43
68943;DHT22;60852;52.190;4.422;2022-08-27T04:26:12;18.17;71.18
68943;DHT22;60852;52.190;4.422;2022-08-27T04:28:39;18.17;71.46
68943;DHT22;60852;52.190;4.422;2022-08-27T04:31:06;18.14;71.48
68943;DHT22;60852;52.190;4.422;2022-08-27T04:33:32;18.18;71.37
68943;DHT22;60852;52.190;4.422;2022-08-27T04:36:04;18.21;71.39
68943;DHT22;60852;52.190;4.422;2022-08-27T04:38:31;18.23;71.27
68943;DHT22;60852;52.190;4.422;2022-08-27T04:40:56;18.17;71.66
68943;DHT22;60852;52.190;4.422;2022-08-27T04:43:41;18.23;71.70
68943;DHT22;60852;52.190;4.422;2022-08-27T04:46:07;18.24;71.29
68943;DHT22;60852;52.190;4.422;2022-08-27T04:48:33;18.21;71.61
68943;DHT22;60852;52.190;4.422;2022-08-27T04:50:59;18.21;72.11
68943;DHT22;60852;52.190;4.422;2022-08-27T04:53:24;18.21;72.06
68943;DHT22;60852;52.190;4.422;2022-08-27T04:55:52;18.29;71.64
68943;DHT22;60852;52.190;4.422;2022-08-27T04:58:19;18.31;71.06
68943;DHT22;60852;52.190;4.422;2022-08-27T05:00:51;18.40;70.67
68943;DHT22;60852;52.190;4.422;2022-08-27T05:03:21;18.50;70.52
68943;DHT22;60852;52.190;4.422;2022-08-27T05:05:48;18.57;68.90
68943;DHT22;60852;52.190;4.422;2022-08-27T05:08:15;18.54;68.77
68943;DHT22;60852;52.190;4.422;2022-08-27T05:10:49;18.55;68.91
68943;DHT22;60852;52.190;4.422;2022-08-27T05:13:16;18.57;68.90
68943;DHT22;60852;52.190;4.422;2022-08-27T05:15:46;18.61;68.79
68943;DHT22;60852;52.190;4.422;2022-08-27T05:18:12;18.61;68.74
68943;DHT22;60852;52.190;4.422;2022-08-27T05:20:44;18.64;68.68
68943;DHT22;60852;52.190;4.422;2022-08-27T05:23:12;18.67;68.33
68943;DHT22;60852;52.190;4.422;2022-08-27T05:25:39;18.68;68.24
68943;DHT22;60852;52.190;4.422;2022-08-27T05:28:05;18.67;68.17
68943;DHT22;60852;52.190;4.422;2022-08-27T05:30:36;18.62;68.37
68943;DHT22;60852;52.190;4.422;2022-08-27T05:33:02;18.61;68.77
68943;DHT22;60852;52.190;4.422;2022-08-27T05:35:28;18.54;68.78
68943;DHT22;60852;52.190;4.422;2022-08-27T05:37:53;18.54;69.02
68943;DHT22;60852;52.190;4.422;2022-08-27T05:40:19;18.60;68.94
68943;DHT22;60852;52.190;4.422;2022-08-27T05:42:44;18.60;68.74
68943;DHT22;60852;52.190;4.422;2022-08-27T05:45:12;18.58;68.76
68943;DHT22;60852;52.190;4.422;2022-08-27T05:47:37;18.54;69.20
68943;DHT22;60852;52.190;4.422;2022-08-27T05:50:03;18.54;69.41
68943;DHT22;60852;52.190;4.422;2022-08-27T05:52:29;18.57;69.22
68943;DHT22;60852;52.190;4.422;2022-08-27T05:54:54;18.58;69.33
68943;DHT22;60852;52.190;4.422;2022-08-27T05:57:19;18.58;69.42
68943;DHT22;60852;52.190;4.422;2022-08-27T05:59:45;18.64;69.24
68943;DHT22;60852;52.190;4.422;2022-08-27T06:02:29;18.65;69.38
68943;DHT22;60852;52.190;4.422;2022-08-27T06:04:55;18.61;69.59
68943;DHT22;60852;52.190;4.422;2022-08-27T06:07:20;18.68;69.76
68943;DHT22;60852;52.190;4.422;2022-08-27T06:09:46;18.67;69.59
68943;DHT22;60852;52.190;4.422;2022-08-27T06:12:11;18.67;69.83
68943;DHT22;60852;52.190;4.422;2022-08-27T06:14:37;18.67;69.90
68943;DHT22;60852;52.190;4.422;2022-08-27T06:17:03;18.75;69.92
68943;DHT22;60852;52.190;4.422;2022-08-27T06:19:29;18.73;69.77
68943;DHT22;60852;52.190;4.422;2022-08-27T06:21:54;18.76;69.45
68943;DHT22;60852;52.190;4.422;2022-08-27T06:24:20;18.78;69.77
68943;DHT22;60852;52.190;4.422;2022-08-27T06:26:47;18.81;70.07
68943;DHT22;60852;52.190;4.422;2022-08-27T06:29:13;18.89;69.38
68943;DHT22;60852;52.190;4.422;2022-08-27T06:31:39;18.98;69.03
68943;DHT22;60852;52.190;4.422;2022-08-27T06:34:08;19.06;68.95
68943;DHT22;60852;52.190;4.422;2022-08-27T06:36:40;19.15;68.68
68943;DHT22;60852;52.190;4.422;2022-08-27T06:39:07;19.23;67.32
68943;DHT22;60852;52.190;4.422;2022-08-27T06:41:33;19.20;68.06
68943;DHT22;60852;52.190;4.422;2022-08-27T06:43:59;19.23;67.91
68943;DHT22;60852;52.190;4.422;2022-08-27T06:46:27;19.30;68.04
68943;DHT22;60852;52.190;4.422;2022-08-27T06:48:55;19.37;67.35
68943;DHT22;60852;52.190;4.422;2022-08-27T06:51:24;19.40;67.05
68943;DHT22;60852;52.190;4.422;2022-08-27T06:53:52;19.43;67.07
68943;DHT22;60852;52.190;4.422;2022-08-27T06:56:19;19.49;67.31
68943;DHT22;60852;52.190;4.422;2022-08-27T06:58:45;19.50;67.18
68943;DHT22;60852;52.190;4.422;2022-08-27T07:01:19;19.46;67.28
68943;DHT22;60852;52.190;4.422;2022-08-27T07:03:45;19.49;66.82
68943;DHT22;60852;52.190;4.422;2022-08-27T07:06:13;19.56;67.18
68943;DHT22;60852;52.190;4.422;2022-08-27T07:08:40;19.57;65.79
68943;DHT22;60852;52.190;4.422;2022-08-27T07:11:07;19.58;66.02
68943;DHT22;60852;52.190;4.422;2022-08-27T07:13:33;19.56;66.02
68943;DHT22;60852;52.190;4.422;2022-08-27T07:16:04;19.58;66.50
68943;DHT22;60852;52.190;4.422;2022-08-27T07:18:30;19.66;65.71
68943;DHT22;60852;52.190;4.422;2022-08-27T07:20:55;19.77;65.46
68943;DHT22;60852;52.190;4.422;2022-08-27T07:23:21;19.85;65.35
68943;DHT22;60852;52.190;4.422;2022-08-27T07:25:46;19.92;63.69
68943;DHT22;60852;52.190;4.422;2022-08-27T07:28:12;19.97;64.39
68943;DHT22;60852;52.190;4.422;2022-08-27T07:30:37;20.02;62.30
68943;DHT22;60852;52.190;4.422;2022-08-27T07:33:03;20.07;60.78
68943;DHT22;60852;52.190;4.422;2022-08-27T07:35:28;20.11;60.14
68943;DHT22;60852;52.190;4.422;2022-08-27T07:37:56;20.18;60.94
68943;DHT22;60852;52.190;4.422;2022-08-27T07:40:22;20.24;59.58
68943;DHT22;60852;52.190;4.422;2022-08-27T07:42:48;20.19;60.57
68943;DHT22;60852;52.190;4.422;2022-08-27T07:45:33;20.28;60.38
68943;DHT22;60852;52.190;4.422;2022-08-27T07:47:59;20.25;59.94
68943;DHT22;60852;52.190;4.422;2022-08-27T07:50:24;20.35;59.80
68943;DHT22;60852;52.190;4.422;2022-08-27T07:52:51;20.49;60.35
68943;DHT22;60852;52.190;4.422;2022-08-27T07:55:17;20.50;58.58
68943;DHT22;60852;52.190;4.422;2022-08-27T07:57:43;20.46;57.88
68943;DHT22;60852;52.190;4.422;2022-08-27T08:00:10;20.40;58.12
68943;DHT22;60852;52.190;4.422;2022-08-27T08:02:37;20.45;57.51
68943;DHT22;60852;52.190;4.422;2022-08-27T08:05:04;20.59;57.08
68943;DHT22;60852;52.190;4.422;2022-08-27T08:07:31;20.81;57.43
68943;DHT22;60852;52.190;4.422;2022-08-27T08:09:57;21.08;55.72
68943;DHT22;60852;52.190;4.422;2022-08-27T08:12:23;21.28;54.42
68943;DHT22;60852;52.190;4.422;2022-08-27T08:14:48;21.44;53.87
68943;DHT22;60852;52.190;4.422;2022-08-27T08:17:13;21.21;55.34
68943;DHT22;60852;52.190;4.422;2022-08-27T08:19:39;20.98;57.11
68943;DHT22;60852;52.190;4.422;2022-08-27T08:22:05;21.00;57.71
68943;DHT22;60852;52.190;4.422;2022-08-27T08:24:32;21.01;56.89
68943;DHT22;60852;52.190;4.422;2022-08-27T08:26:58;21.01;57.69
68943;DHT22;60852;52.190;4.422;2022-08-27T08:29:24;20.98;57.90
68943;DHT22;60852;52.190;4.422;2022-08-27T08:31:49;21.07;57.89
68943;DHT22;60852;52.190;4.422;2022-08-27T08:34:15;21.08;57.91
68943;DHT22;60852;52.190;4.422;2022-08-27T08:36:40;21.03;57.70
68943;DHT22;60852;52.190;4.422;2022-08-27T08:39:06;20.96;58.12
68943;DHT22;60852;52.190;4.422;2022-08-27T08:41:40;21.04;57.76
68943;DHT22;60852;52.190;4.422;2022-08-27T08:50:08;21.28;55.83
68943;DHT22;60852;52.190;4.422;2022-08-27T08:55:51;21.24;54.64
68943;DHT22;60852;52.190;4.422;2022-08-27T08:58:37;21.30;54.25
68943;DHT22;60852;52.190;4.422;2022-08-27T09:01:06;21.31;53.63
68943;DHT22;60852;52.190;4.422;2022-08-27T09:03:35;21.28;54.57
68943;DHT22;60852;52.190;4.422;2022-08-27T09:06:04;21.32;53.53
68943;DHT22;60852;52.190;4.422;2022-08-27T09:08:38;21.28;54.14
68943;DHT22;60852;52.190;4.422;2022-08-27T09:11:24;21.31;54.98
68943;DHT22;60852;52.190;4.422;2022-08-27T09:13:55;21.23;55.83
68943;DHT22;60852;52.190;4.422;2022-08-27T09:16:22;21.17;56.51
68943;DHT22;60852;52.190;4.422;2022-08-27T09:18:48;21.11;57.23
68943;DHT22;60852;52.190;4.422;2022-08-27T09:21:32;21.20;55.90
68943;DHT22;60852;52.190;4.422;2022-08-27T09:26:42;21.30;56.10
68943;DHT22;60852;52.190;4.422;2022-08-27T09:29:11;21.35;56.22
68943;DHT22;60852;52.190;4.422;2022-08-27T09:31:41;21.34;57.28
68943;DHT22;60852;52.190;4.422;2022-08-27T09:34:07;21.37;57.51
68943;DHT22;60852;52.190;4.422;2022-08-27T09:36:33;21.30;57.78
68943;DHT22;60852;52.190;4.422;2022-08-27T09:39:03;21.17;58.56
68943;DHT22;60852;52.190;4.422;2022-08-27T09:41:36;21.21;58.81
68943;DHT22;60852;52.190;4.422;2022-08-27T09:44:10;21.15;57.57
68943;DHT22;60852;52.190;4.422;2022-08-27T09:46:36;21.11;57.71
68943;DHT22;60852;52.190;4.422;2022-08-27T09:49:13;21.14;56.85
68943;DHT22;60852;52.190;4.422;2022-08-27T09:51:43;21.27;56.43
68943;DHT22;60852;52.190;4.422;2022-08-27T09:54:10;21.41;56.53
68943;DHT22;60852;52.190;4.422;2022-08-27T09:56:46;21.42;54.43
68943;DHT22;60852;52.190;4.422;2022-08-27T09:59:30;21.48;54.34
68943;DHT22;60852;52.190;4.422;2022-08-27T10:02:16;21.62;53.47
68943;DHT22;60852;52.190;4.422;2022-08-27T10:04:48;21.56;53.66
68943;DHT22;60852;52.190;4.422;2022-08-27T10:07:47;21.55;54.35
68943;DHT22;60852;52.190;4.422;2022-08-27T10:10:45;21.66;54.49
68943;DHT22;60852;52.190;4.422;2022-08-27T10:13:21;21.82;54.48
68943;DHT22;60852;52.190;4.422;2022-08-27T10:20:03;21.71;54.55
68943;DHT22;60852;52.190;4.422;2022-08-27T10:25:03;22.29;52.60
68943;DHT22;60852;52.190;4.422;2022-08-27T10:27:57;22.57;52.87
68943;DHT22;60852;52.190;4.422;2022-08-27T10:30:57;22.37;53.02
68943;DHT22;60852;52.190;4.422;2022-08-27T10:36:39;21.86;54.97
68943;DHT22;60852;52.190;4.422;2022-08-27T10:39:18;21.72;55.07
68943;DHT22;60852;52.190;4.422;2022-08-27T10:47:39;21.69;54.00
68943;DHT22;60852;52.190;4.422;2022-08-27T10:50:27;21.79;55.21
68943;DHT22;60852;52.190;4.422;2022-08-27T10:52:58;21.75;55.79
68943;DHT22;60852;52.190;4.422;2022-08-27T10:55:32;21.71;56.48
68943;DHT22;60852;52.190;4.422;2022-08-27T11:04:04;21.79;54.52
68943;DHT22;60852;52.190;4.422;2022-08-27T11:06:57;21.69;54.81
68943;DHT22;60852;52.190;4.422;2022-08-27T11:09:48;21.51;54.83
68943;DHT22;60852;52.190;4.422;2022-08-27T11:12:22;21.51;55.33
68943;DHT22;60852;52.190;4.422;2022-08-27T11:18:17;21.45;55.18
68943;DHT22;60852;52.190;4.422;2022-08-27T11:21:02;21.34;55.13
68943;DHT22;60852;52.190;4.422;2022-08-27T11:23:48;21.38;54.77
68943;DHT22;60852;52.190;4.422;2022-08-27T11:26:17;21.34;54.90
68943;DHT22;60852;52.190;4.422;2022-08-27T11:28:53;21.41;54.55
68943;DHT22;60852;52.190;4.422;2022-08-27T11:31:36;21.51;54.74
68943;DHT22;60852;52.190;4.422;2022-08-27T11:37:25;21.52;57.40
68943;DHT22;60852;52.190;4.422;2022-08-27T11:42:43;21.61;57.09
68943;DHT22;60852;52.190;4.422;2022-08-27T11:47:56;21.55;57.56
68943;DHT22;60852;52.190;4.422;2022-08-27T11:50:23;21.59;57.28
68943;DHT22;60852;52.190;4.422;2022-08-27T11:53:00;21.63;55.61
68943;DHT22;60852;52.190;4.422;2022-08-27T11:55:31;21.72;55.14
68943;DHT22;60852;52.190;4.422;2022-08-27T11:58:20;21.79;55.32
68943;DHT22;60852;52.190;4.422;2022-08-27T12:00:47;22.00;55.86
68943;DHT22;60852;52.190;4.422;2022-08-27T12:03:30;22.53;55.27
68943;DHT22;60852;52.190;4.422;2022-08-27T12:14:52;22.61;52.87
68943;DHT22;60852;52.190;4.422;2022-08-27T12:17:13;22.47;53.33
68943;DHT22;60852;52.190;4.422;2022-08-27T12:22:59;22.27;54.88
68943;DHT22;60852;52.190;4.422;2022-08-27T12:25:58;22.18;55.97
68943;DHT22;60852;52.190;4.422;2022-08-27T12:28:25;22.23;55.64
68943;DHT22;60852;52.190;4.422;2022-08-27T12:30:51;22.13;55.95
68943;DHT22;60852;52.190;4.422;2022-08-27T12:35:47;21.96;56.64
68943;DHT22;60852;52.190;4.422;2022-08-27T12:40:59;22.20;57.05
68943;DHT22;60852;52.190;4.422;2022-08-27T12:43:34;22.17;56.58
68943;DHT22;60852;52.190;4.422;2022-08-27T12:48:37;22.10;56.37
68943;DHT22;60852;52.190;4.422;2022-08-27T12:51:29;22.20;56.43
68943;DHT22;60852;52.190;4.422;2022-08-27T12:56:59;22.18;56.68
68943;DHT22;60852;52.190;4.422;2022-08-27T13:02:31;21.99;57.54
68943;DHT22;60852;52.190;4.422;2022-08-27T13:05:03;22.03;57.78
68943;DHT22;60852;52.190;4.422;2022-08-27T13:07:40;21.86;58.05
68943;DHT22;60852;52.190;4.422;2022-08-27T13:10:13;21.79;59.06
68943;DHT22;60852;52.190;4.422;2022-08-27T13:12:41;21.85;59.15
68943;DHT22;60852;52.190;4.422;2022-08-27T13:15:09;22.03;58.99
68943;DHT22;60852;52.190;4.422;2022-08-27T13:17:39;22.12;59.23
68943;DHT22;60852;52.190;4.422;2022-08-27T13:20:15;22.02;59.44
68943;DHT22;60852;52.190;4.422;2022-08-27T13:22:40;21.93;60.16
68943;DHT22;60852;52.190;4.422;2022-08-27T13:25:32;22.18;59.44
68943;DHT22;60852;52.190;4.422;2022-08-27T13:28:12;22.03;59.91
68943;DHT22;60852;52.190;4.422;2022-08-27T13:30:43;21.83;60.02
68943;DHT22;60852;52.190;4.422;2022-08-27T13:33:16;21.75;60.22
68943;DHT22;60852;52.190;4.422;2022-08-27T13:35:43;21.90;60.48
68943;DHT22;60852;52.190;4.422;2022-08-27T13:38:09;21.99;59.77
68943;DHT22;60852;52.190;4.422;2022-08-27T13:40:55;21.83;60.25
68943;DHT22;60852;52.190;4.422;2022-08-27T13:43:30;21.76;60.35
68943;DHT22;60852;52.190;4.422;2022-08-27T13:45:59;21.71;60.64
68943;DHT22;60852;52.190;4.422;2022-08-27T13:48:25;21.67;61.09
68943;DHT22;60852;52.190;4.422;2022-08-27T13:50:53;21.56;61.57
68943;DHT22;60852;52.190;4.422;2022-08-27T13:53:29;21.52;61.60
68943;DHT22;60852;52.190;4.422;2022-08-27T13:56:28;21.49;61.64
68943;DHT22;60852;52.190;4.422;2022-08-27T13:58:54;21.46;61.85
68943;DHT22;60852;52.190;4.422;2022-08-27T14:01:27;21.49;61.45
68943;DHT22;60852;52.190;4.422;2022-08-27T14:04:00;21.63;61.32
68943;DHT22;60852;52.190;4.422;2022-08-27T14:06:31;21.69;60.67
68943;DHT22;60852;52.190;4.422;2022-08-27T14:09:06;21.83;60.14
68943;DHT22;60852;52.190;4.422;2022-08-27T14:11:32;21.76;59.96
68943;DHT22;60852;52.190;4.422;2022-08-27T14:13:58;21.63;60.19
68943;DHT22;60852;52.190;4.422;2022-08-27T14:16:29;21.39;60.82
68943;DHT22;60852;52.190;4.422;2022-08-27T14:21:49;21.15;61.52
68943;DHT22;60852;52.190;4.422;2022-08-27T14:24:15;21.24;61.39
68943;DHT22;60852;52.190;4.422;2022-08-27T14:26:41;21.23;61.62
68943;DHT22;60852;52.190;4.422;2022-08-27T14:29:06;21.23;61.74
68943;DHT22;60852;52.190;4.422;2022-08-27T14:31:32;21.24;61.71
68943;DHT22;60852;52.190;4.422;2022-08-27T14:33:57;21.20;61.84
68943;DHT22;60852;52.190;4.422;2022-08-27T14:36:24;21.15;62.51
68943;DHT22;60852;52.190;4.422;2022-08-27T14:38:51;21.07;63.36
68943;DHT22;60852;52.190;4.422;2022-08-27T14:41:19;21.14;62.95
68943;DHT22;60852;52.190;4.422;2022-08-27T14:43:46;21.17;62.62
68943;DHT22;60852;52.190;4.422;2022-08-27T14:46:28;21.01;62.00
68943;DHT22;60852;52.190;4.422;2022-08-27T14:48:55;21.07;61.70
68943;DHT22;60852;52.190;4.422;2022-08-27T14:51:25;20.97;61.36
68943;DHT22;60852;52.190;4.422;2022-08-27T14:53:52;20.91;61.46
68943;DHT22;60852;52.190;4.422;2022-08-27T14:56:18;20.90;61.56
68943;DHT22;60852;52.190;4.422;2022-08-27T14:58:45;20.87;61.70
68943;DHT22;60852;52.190;4.422;2022-08-27T15:01:11;21.00;61.04
68943;DHT22;60852;52.190;4.422;2022-08-27T15:03:42;21.07;59.88
68943;DHT22;60852;52.190;4.422;2022-08-27T15:06:08;20.97;60.06
68943;DHT22;60852;52.190;4.422;2022-08-27T15:08:34;20.90;60.08
68943;DHT22;60852;52.190;4.422;2022-08-27T15:11:00;20.93;60.09
68943;DHT22;60852;52.190;4.422;2022-08-27T15:13:25;21.06;59.76
68943;DHT22;60852;52.190;4.422;2022-08-27T15:15:51;21.12;59.68
68943;DHT22;60852;52.190;4.422;2022-08-27T15:18:17;21.12;59.12
68943;DHT22;60852;52.190;4.422;2022-08-27T15:20:42;21.07;59.49
68943;DHT22;60852;52.190;4.422;2022-08-27T15:23:10;20.94;59.90
68943;DHT22;60852;52.190;4.422;2022-08-27T15:25:38;20.79;60.69
68943;DHT22;60852;52.190;4.422;2022-08-27T15:28:03;20.87;61.35
68943;DHT22;60852;52.190;4.422;2022-08-27T15:30:32;20.83;62.14
68943;DHT22;60852;52.190;4.422;2022-08-27T15:32:58;20.76;62.17
68943;DHT22;60852;52.190;4.422;2022-08-27T15:35:26;20.67;61.70
68943;DHT22;60852;52.190;4.422;2022-08-27T15:37:53;20.62;62.18
68943;DHT22;60852;52.190;4.422;2022-08-27T15:40:24;20.65;62.61
68943;DHT22;60852;52.190;4.422;2022-08-27T15:43:03;20.69;62.91
68943;DHT22;60852;52.190;4.422;2022-08-27T15:45:31;20.63;63.22
68943;DHT22;60852;52.190;4.422;2022-08-27T15:47:57;20.65;63.20
68943;DHT22;60852;52.190;4.422;2022-08-27T15:50:24;20.77;63.18
68943;DHT22;60852;52.190;4.422;2022-08-27T15:52:56;20.73;63.25
68943;DHT22;60852;52.190;4.422;2022-08-27T15:55:26;20.72;63.01
68943;DHT22;60852;52.190;4.422;2022-08-27T15:57:52;20.67;62.13
68943;DHT22;60852;52.190;4.422;2022-08-27T16:00:19;20.65;62.73
68943;DHT22;60852;52.190;4.422;2022-08-27T16:02:46;20.70;62.82
68943;DHT22;60852;52.190;4.422;2022-08-27T16:05:13;20.72;62.96
68943;DHT22;60852;52.190;4.422;2022-08-27T16:07:39;20.90;61.86
68943;DHT22;60852;52.190;4.422;2022-08-27T16:10:06;21.00;61.38
68943;DHT22;60852;52.190;4.422;2022-08-27T16:12:32;21.17;60.73
68943;DHT22;60852;52.190;4.422;2022-08-27T16:14:57;21.28;60.39
68943;DHT22;60852;52.190;4.422;2022-08-27T16:17:24;21.41;60.30
68943;DHT22;60852;52.190;4.422;2022-08-27T16:19:51;21.44;59.16
68943;DHT22;60852;52.190;4.422;2022-08-27T16:22:17;21.38;59.51
68943;DHT22;60852;52.190;4.422;2022-08-27T16:24:43;21.28;60.12
68943;DHT22;60852;52.190;4.422;2022-08-27T16:27:09;21.30;60.70
68943;DHT22;60852;52.190;4.422;2022-08-27T16:29:35;21.24;60.87
68943;DHT22;60852;52.190;4.422;2022-08-27T16:32:01;21.25;61.10
68943;DHT22;60852;52.190;4.422;2022-08-27T16:34:27;21.23;60.06
68943;DHT22;60852;52.190;4.422;2022-08-27T16:36:53;21.04;60.62
68943;DHT22;60852;52.190;4.422;2022-08-27T16:39:19;20.94;61.21
68943;DHT22;60852;52.190;4.422;2022-08-27T16:41:45;20.88;61.42
68943;DHT22;60852;52.190;4.422;2022-08-27T16:44:11;20.87;61.54
68943;DHT22;60852;52.190;4.422;2022-08-27T16:46:37;20.88;61.67
68943;DHT22;60852;52.190;4.422;2022-08-27T16:49:03;20.96;61.21
68943;DHT22;60852;52.190;4.422;2022-08-27T16:51:47;20.87;62.21
68943;DHT22;60852;52.190;4.422;2022-08-27T16:54:14;20.87;62.87
68943;DHT22;60852;52.190;4.422;2022-08-27T16:56:41;20.87;62.84
68943;DHT22;60852;52.190;4.422;2022-08-27T16:59:08;20.75;63.07
68943;DHT22;60852;52.190;4.422;2022-08-27T17:01:38;20.75;63.08